.
WxDataArchive / Data Records for 2008-02-28
2008-02-27 February 2008 2008-02-29

Data Records for Thursday, 28 February 2008

Time	Temp	Chill	HIndex	Humid	Dewpt	 Wind 	HiWind	WindDir	Rain 	Barom 
-----	----	-----	------	-----	-----	------	------	-------	-----	----- 
00:00	17.8	17.8	17.8	77	11.8	0	2	248	0.00	30.068 
00:05	18.0	18.0	18.0	77	12.0	0	1	248	0.00	30.066 
00:10	18.1	18.1	18.1	77	12.1	0	1	248	0.00	30.067 
00:15	18.1	18.1	18.1	76	11.8	0	1	248	0.00	30.068 
00:20	18.1	18.1	18.1	76	11.8	0	1	248	0.00	30.068 
00:25	18.3	18.3	18.3	75	11.7	0	1	248	0.00	30.068 
00:30	18.3	18.3	18.3	75	11.7	0	1	248	0.00	30.069 
00:35	18.3	18.3	18.3	75	11.7	0	3	248	0.00	30.071 
00:40	18.3	18.3	18.3	74	11.4	0	2	315	0.00	30.071 
00:45	18.1	18.1	18.1	73	10.9	1	3	315	0.00	30.071 
00:50	18.0	18.0	18.0	73	10.8	1	3	225	0.00	30.072 
00:55	17.8	17.8	17.8	74	10.9	0	2	292	0.00	30.074 
01:00	17.7	17.7	17.7	75	11.1	1	5	248	0.00	30.073 
01:05	17.5	17.5	17.5	75	11.0	1	3	248	0.00	30.073 
01:10	17.3	17.3	17.3	76	11.1	1	3	270	0.00	30.078 
01:15	17.2	17.2	17.2	76	11.0	1	4	248	0.00	30.078 
01:20	17.0	17.0	17.0	76	10.8	1	4	248	0.00	30.076 
01:25	17.0	17.0	17.0	76	10.8	1	3	248	0.00	30.078 
01:30	16.9	16.9	16.9	77	11.0	1	2	248	0.00	30.080 
01:35	16.7	16.7	16.7	77	10.8	0	2	248	0.00	30.079 
01:40	16.7	16.7	16.7	77	10.8	0	1	248	0.00	30.078 
01:45	16.5	16.5	16.5	78	10.9	1	3	270	0.00	30.078 
01:50	16.4	16.4	16.4	78	10.8	1	2	248	0.00	30.079 
01:55	16.2	16.2	16.2	78	10.6	1	2	248	0.00	30.078 
02:00	16.1	16.1	16.1	79	10.8	0	2	248	0.00	30.079 
02:05	15.9	15.9	15.9	79	10.6	0	1	248	0.00	30.078 
02:10	15.7	15.7	15.7	79	10.4	0	1	248	0.00	30.080 
02:15	15.6	15.6	15.6	79	10.3	0	1	248	0.00	30.080 
02:20	15.4	15.4	15.4	80	10.4	0	1	248	0.00	30.082 
02:25	15.1	15.1	15.1	80	10.1	0	1	248	0.00	30.082 
02:30	14.9	14.9	14.9	80	9.9	0	0	---	0.00	30.081 
02:35	14.6	14.6	14.6	80	9.6	0	0	---	0.00	30.081 
02:40	14.3	14.3	14.3	81	9.6	0	0	---	0.00	30.081 
02:45	14.0	14.0	14.0	81	9.3	0	0	---	0.00	30.081 
02:50	13.6	13.6	13.6	81	8.9	0	0	---	0.00	30.082 
02:55	13.3	13.3	13.3	81	8.6	0	0	---	0.00	30.084 
03:00	12.9	12.9	12.9	81	8.2	0	0	---	0.00	30.085 
03:05	12.8	12.8	12.8	82	8.4	0	0	---	0.00	30.087 
03:10	12.6	12.6	12.6	82	8.2	0	1	248	0.00	30.088 
03:15	12.4	12.4	12.4	82	8.0	0	0	---	0.00	30.089 
03:20	12.3	12.3	12.3	82	7.9	0	1	248	0.00	30.089 
03:25	12.3	12.3	12.3	83	8.1	0	1	248	0.00	30.089 
03:30	12.1	12.1	12.1	83	7.9	0	0	---	0.00	30.091 
03:35	11.7	11.7	11.7	83	7.6	0	0	---	0.00	30.092 
03:40	11.6	11.6	11.6	83	7.5	0	0	---	0.00	30.094 
03:45	11.4	11.4	11.4	83	7.3	0	1	248	0.00	30.093 
03:50	11.4	11.4	11.4	83	7.3	0	0	---	0.00	30.096 
03:55	11.2	11.2	11.2	83	7.1	0	0	---	0.00	30.095 
04:00	10.9	10.9	10.9	83	6.8	0	0	---	0.00	30.100 
04:05	10.7	10.7	10.7	83	6.6	0	0	---	0.00	30.103 
04:10	10.4	10.4	10.4	83	6.3	0	0	---	0.00	30.102 
04:15	10.2	10.2	10.2	83	6.1	0	0	---	0.00	30.104 
04:20	10.0	10.0	10.0	83	5.9	0	0	---	0.00	30.105 
04:25	9.9	9.9	9.9	83	5.8	0	0	---	0.00	30.105 
04:30	9.7	9.7	9.7	84	5.9	0	0	---	0.00	30.106 
04:35	9.5	9.5	9.5	84	5.7	0	0	---	0.00	30.106 
04:40	9.5	9.5	9.5	84	5.7	0	0	---	0.00	30.107 
04:45	9.7	9.7	9.7	84	5.9	0	0	---	0.00	30.108 
04:50	9.9	9.9	9.9	84	6.1	0	0	---	0.00	30.110 
04:55	9.9	9.9	9.9	84	6.1	0	0	---	0.00	30.108 
05:00	9.7	9.7	9.7	84	5.9	0	0	---	0.00	30.110 
05:05	9.7	9.7	9.7	84	5.9	0	0	---	0.00	30.111 
05:10	9.5	9.5	9.5	84	5.7	0	0	---	0.00	30.112 
05:15	9.2	9.2	9.2	84	5.4	0	0	---	0.00	30.114 
05:20	8.8	8.8	8.8	84	5.0	0	0	---	0.00	30.117 
05:25	8.6	8.6	8.6	84	4.8	0	0	---	0.00	30.120 
05:30	8.3	8.3	8.3	84	4.5	0	0	---	0.00	30.124 
05:35	8.1	8.1	8.1	84	4.3	0	0	---	0.00	30.124 
05:40	7.7	7.7	7.7	84	3.9	0	0	---	0.00	30.125 
05:45	7.4	7.4	7.4	84	3.6	0	0	---	0.00	30.126 
05:50	7.0	7.0	7.0	83	2.9	0	0	---	0.00	30.126 
05:55	6.5	6.5	6.5	83	2.5	0	0	---	0.00	30.127 
06:00	6.5	6.5	6.5	84	2.7	0	1	248	0.00	30.127 
06:05	6.7	6.7	6.7	84	2.9	0	1	248	0.00	30.130 
06:10	6.9	6.9	6.9	84	3.1	0	0	---	0.00	30.130 
06:15	6.9	6.9	6.9	84	3.1	0	0	---	0.00	30.133 
06:20	6.9	6.9	6.9	84	3.1	0	0	---	0.00	30.137 
06:25	6.5	6.5	6.5	84	2.7	0	0	---	0.00	30.141 
06:30	6.3	6.3	6.3	84	2.5	0	0	---	0.00	30.143 
06:35	6.1	6.1	6.1	84	2.3	0	0	---	0.00	30.144 
06:40	6.0	6.0	6.0	84	2.2	0	0	---	0.00	30.146 
06:45	6.0	6.0	6.0	84	2.2	0	0	---	0.00	30.147 
06:50	6.3	6.3	6.3	84	2.5	0	0	---	0.00	30.149 
06:55	6.5	6.5	6.5	85	3.0	0	0	---	0.00	30.151 
07:00	6.9	6.9	6.9	85	3.4	0	1	248	0.00	30.152 
07:05	7.0	7.0	7.0	85	3.5	0	1	248	0.00	30.155 
07:10	7.4	7.4	7.4	85	3.9	0	1	248	0.00	30.157 
07:15	7.7	7.7	7.7	85	4.2	0	1	248	0.00	30.158 
07:20	8.1	8.1	8.1	86	4.8	0	1	248	0.00	30.160 
07:25	8.3	8.3	8.3	85	4.7	0	1	248	0.00	30.161 
07:30	8.1	8.1	8.1	85	4.5	0	1	248	0.00	30.166 
07:35	8.1	8.1	8.1	85	4.5	0	0	---	0.00	30.169 
07:40	8.1	8.1	8.1	84	4.3	0	0	---	0.00	30.172 
07:45	7.9	7.9	7.9	84	4.1	0	0	---	0.00	30.174 
07:50	7.9	7.9	7.9	84	4.1	0	0	---	0.00	30.174 
07:55	7.7	7.7	7.7	84	3.9	0	0	---	0.00	30.174 
08:00	7.9	7.9	7.9	84	4.1	0	0	---	0.00	30.174 
08:05	8.3	8.3	8.3	84	4.5	0	0	---	0.00	30.178 
08:10	9.0	9.0	9.0	85	5.4	0	1	248	0.00	30.177 
08:15	9.5	9.5	9.5	85	5.9	0	0	---	0.00	30.181 
08:20	10.0	10.0	10.0	85	6.4	0	0	---	0.00	30.181 
08:25	10.7	10.7	10.7	85	7.1	0	1	248	0.00	30.184 
08:30	11.2	11.2	11.2	85	7.6	0	2	248	0.00	30.188 
08:35	11.9	11.9	11.9	84	8.0	1	3	248	0.00	30.187 
08:40	12.6	12.6	12.6	84	8.7	0	2	248	0.00	30.188 
08:45	13.5	13.5	13.5	84	9.6	1	2	248	0.00	30.188 
08:50	14.1	14.1	14.1	82	9.6	1	3	248	0.00	30.189 
08:55	14.8	14.8	14.8	81	10.0	0	3	248	0.00	30.189 
09:00	15.4	15.4	15.4	78	9.8	0	1	248	0.00	30.192 
09:05	16.1	16.1	16.1	77	10.2	1	3	248	0.00	30.192 
09:10	16.9	16.9	16.9	76	10.7	0	2	248	0.00	30.195 
09:15	17.8	17.8	17.8	74	10.9	0	2	248	0.00	30.196 
09:20	18.1	18.1	18.1	71	10.3	0	2	248	0.00	30.196 
09:25	18.4	18.4	18.4	69	10.0	0	1	248	0.00	30.199 
09:30	18.4	18.4	18.4	69	10.0	0	2	248	0.00	30.203 
09:35	18.3	18.3	18.3	68	9.5	1	2	248	0.00	30.208 
09:40	18.1	18.1	18.1	68	9.3	1	2	248	0.00	30.210 
09:45	18.3	18.3	18.3	68	9.5	2	6	248	0.00	30.212 
09:50	18.6	18.6	18.6	68	9.8	1	4	248	0.00	30.213 
09:55	18.9	18.9	18.9	67	9.8	2	5	248	0.00	30.215 
10:00	19.2	19.2	19.2	66	9.7	1	5	248	0.00	30.219 
10:05	19.2	19.2	19.2	66	9.7	1	4	248	0.00	30.220 
10:10	19.2	19.2	19.2	65	9.4	1	4	248	0.00	30.220 
10:15	19.2	19.2	19.2	65	9.4	1	2	248	0.00	30.222 
10:20	19.9	19.9	19.9	66	10.4	1	3	248	0.00	30.222 
10:25	20.8	20.8	20.8	64	10.6	1	3	248	0.00	30.220 
10:30	21.6	21.6	21.6	62	10.6	1	2	248	0.00	30.220 
10:35	22.4	22.4	22.4	60	10.6	1	5	248	0.00	30.222 
10:40	22.5	22.5	22.5	58	10.0	1	3	248	0.00	30.221 
10:45	22.5	22.5	22.5	58	10.0	1	7	270	0.00	30.222 
10:50	22.7	22.7	22.7	56	9.4	2	9	248	0.00	30.223 
10:55	22.7	22.7	22.7	55	9.0	2	6	248	0.00	30.224 
11:00	22.9	22.9	22.9	55	9.2	2	3	270	0.00	30.224 
11:05	23.5	23.5	23.5	55	9.7	2	7	248	0.00	30.226 
11:10	24.1	24.1	24.1	55	10.3	2	5	248	0.00	30.224 
11:15	24.1	24.1	24.1	55	10.3	2	3	248	0.00	30.225 
11:20	24.1	24.1	24.1	54	9.9	2	4	248	0.00	30.224 
11:25	24.2	24.2	24.2	54	10.0	2	4	248	0.00	30.224 
11:30	24.2	24.2	24.2	56	10.8	1	4	270	0.00	30.225 
11:35	24.4	24.4	24.4	54	10.2	2	4	270	0.00	30.225 
11:40	24.5	24.5	24.5	55	10.7	1	3	270	0.00	30.225 
11:45	24.8	24.8	24.8	54	10.5	1	4	225	0.00	30.225 
11:50	24.8	24.8	24.8	53	10.1	1	4	270	0.01	30.226 
11:55	25.3	25.3	25.3	54	11.0	2	5	248	0.00	30.227 
12:00	25.4	25.4	25.4	50	9.4	2	7	248	0.00	30.227 
12:05	25.6	25.6	25.6	50	9.6	2	6	270	0.00	30.228 
12:10	25.6	25.6	25.6	49	9.1	2	9	248	0.00	30.229 
12:15	25.7	25.7	25.7	50	9.7	1	4	225	0.00	30.226 
12:20	26.0	26.0	26.0	51	10.4	1	4	248	0.01	30.227 
12:25	26.3	26.3	26.3	50	10.2	2	6	248	0.00	30.226 
12:30	26.4	26.4	26.4	50	10.3	1	3	248	0.00	30.226 
12:35	26.7	26.7	26.7	49	10.1	2	4	248	0.00	30.226 
12:40	26.4	26.4	26.4	49	9.9	2	5	248	0.00	30.224 
12:45	26.4	26.4	26.4	48	9.4	2	6	248	0.00	30.225 
12:50	26.3	26.3	26.3	48	9.3	1	5	248	0.00	30.225 
12:55	26.4	26.4	26.4	50	10.3	2	5	270	0.01	30.223 
13:00	26.9	26.9	26.9	48	9.9	1	4	248	0.00	30.224 
13:05	27.0	27.0	27.0	49	10.4	2	5	90	0.00	30.223 
13:10	27.5	27.5	27.5	47	9.9	1	4	248	0.00	30.222 
13:15	27.5	27.5	27.5	48	10.4	1	4	45	0.00	30.220 
13:20	27.9	27.9	27.9	47	10.3	1	3	270	0.00	30.220 
13:25	28.2	28.2	28.2	46	10.1	1	4	248	0.01	30.220 
13:30	27.9	27.9	27.9	46	9.8	2	6	248	0.00	30.222 
13:35	27.5	27.5	27.5	46	9.5	2	7	90	0.00	30.220 
13:40	27.6	27.6	27.6	47	10.0	1	4	248	0.00	30.219 
13:45	27.3	27.3	27.3	46	9.3	2	5	248	0.01	30.220 
13:50	27.2	27.2	27.2	46	9.2	1	4	248	0.00	30.220 
13:55	27.0	27.0	27.0	46	9.0	1	3	248	0.00	30.219 
14:00	27.0	27.0	27.0	46	9.0	1	4	248	0.00	30.220 
14:05	26.9	26.9	26.9	47	9.4	1	4	248	0.00	30.224 
14:10	27.0	27.0	27.0	47	9.5	1	3	248	0.00	30.224 
14:15	27.0	27.0	27.0	46	9.0	2	6	248	0.00	30.225 
14:20	27.3	27.3	27.3	47	9.8	2	6	248	0.01	30.227 
14:25	27.6	27.6	27.6	47	10.0	2	4	248	0.00	30.226 
14:30	27.9	27.9	27.9	48	10.8	2	5	248	0.00	30.227 
14:35	27.9	27.9	27.9	47	10.3	1	5	248	0.00	30.227 
14:40	27.6	27.6	27.6	48	10.5	1	4	248	0.00	30.229 
14:45	27.3	27.3	27.3	47	9.8	1	4	270	0.00	30.230 
14:50	27.3	27.3	27.3	48	10.2	1	4	248	0.00	30.232 
14:55	27.5	27.5	27.5	47	9.9	1	3	248	0.00	30.235 
15:00	27.5	27.5	27.5	48	10.4	1	3	248	0.00	30.238 
15:05	27.6	27.6	27.6	47	10.0	1	3	248	0.00	30.241 
15:10	27.6	27.6	27.6	45	9.1	1	4	248	0.00	30.236 
15:15	26.7	26.7	26.7	48	9.7	1	3	338	0.00	30.243 
15:20	26.3	26.3	26.3	47	8.8	0	2	292	0.00	30.246 
15:25	26.4	26.4	26.4	49	9.9	1	2	248	0.00	30.245 
15:30	26.9	26.9	26.9	47	9.4	0	3	292	0.00	30.243 
15:35	27.5	27.5	27.5	52	12.2	0	4	248	0.00	30.243 
15:40	27.6	27.6	27.6	47	10.0	1	4	225	0.00	30.244 
15:45	27.3	27.3	27.3	47	9.8	1	5	248	0.00	30.243 
15:50	27.0	27.0	27.0	48	10.0	2	6	248	0.00	30.244 
15:55	26.9	26.9	26.9	49	10.3	2	6	248	0.00	30.243 
16:00	26.3	26.3	26.3	50	10.2	2	5	90	0.00	30.245 
16:05	26.3	26.3	26.3	51	10.7	1	3	90	0.00	30.243 
16:10	25.7	25.7	25.7	51	10.1	2	5	112	0.00	30.239 
16:15	25.6	25.6	25.6	52	10.4	1	4	0	0.00	30.242 
16:20	25.3	25.3	25.3	52	10.2	1	3	0	0.00	30.246 
16:25	24.8	24.8	24.8	52	9.7	1	4	68	0.00	30.247 
16:30	24.7	24.7	24.7	53	10.0	1	5	90	0.00	30.246 
16:35	24.7	24.7	24.7	54	10.5	1	4	112	0.00	30.247 
16:40	24.5	24.5	24.5	53	9.8	2	6	135	0.00	30.243 
16:45	24.4	24.4	24.4	53	9.8	2	5	112	0.00	30.246 
16:50	24.2	24.2	24.2	54	10.0	2	6	112	0.00	30.248 
16:55	23.9	23.9	23.9	55	10.1	1	4	112	0.00	30.251 
17:00	23.9	23.9	23.9	55	10.1	1	3	292	0.00	30.250 
17:05	23.9	23.9	23.9	55	10.1	1	5	112	0.00	30.255 
17:10	23.6	23.6	23.6	55	9.8	1	3	112	0.00	30.255 
17:15	23.5	23.5	23.5	55	9.7	1	5	112	0.00	30.257 
17:20	23.5	23.5	23.5	55	9.7	1	4	112	0.00	30.257 
17:25	23.2	23.2	23.2	55	9.5	1	4	90	0.00	30.259 
17:30	23.0	23.0	23.0	56	9.7	1	3	90	0.00	30.262 
17:35	22.9	22.9	22.9	56	9.6	1	4	22	0.00	30.260 
17:40	22.7	22.7	22.7	56	9.4	0	3	135	0.00	30.258 
17:45	22.5	22.5	22.5	56	9.2	1	4	270	0.00	30.254 
17:50	22.5	22.5	22.5	57	9.6	1	6	90	0.00	30.254 
17:55	22.4	22.4	22.4	58	9.9	0	2	90	0.00	30.259 
18:00	22.4	22.4	22.4	57	9.5	1	3	270	0.00	30.263 
18:05	22.4	22.4	22.4	57	9.5	0	2	248	0.00	30.259 
18:10	22.2	22.2	22.2	58	9.7	1	3	248	0.00	30.256 
18:15	22.1	22.1	22.1	58	9.6	0	1	225	0.00	30.257 
18:20	21.9	21.9	21.9	58	9.4	0	3	248	0.00	30.257 
18:25	21.8	21.8	21.8	59	9.7	0	1	248	0.00	30.260 
18:30	21.6	21.6	21.6	59	9.5	0	1	248	0.00	30.261 
18:35	21.3	21.3	21.3	59	9.2	0	0	---	0.00	30.261 
18:40	21.1	21.1	21.1	59	9.0	0	0	---	0.00	30.258 
18:45	20.8	20.8	20.8	60	9.1	0	0	---	0.00	30.261 
18:50	20.6	20.6	20.6	61	9.3	0	0	---	0.00	30.265 
18:55	20.3	20.3	20.3	61	9.0	0	0	---	0.00	30.265 
19:00	20.2	20.2	20.2	62	9.3	0	1	248	0.00	30.268 
19:05	20.0	20.0	20.0	63	9.5	0	0	---	0.00	30.266 
19:10	19.9	19.9	19.9	63	9.4	0	1	248	0.00	30.266 
19:15	19.9	19.9	19.9	63	9.4	0	1	248	0.00	30.268 
19:20	19.9	19.9	19.9	64	9.7	0	1	248	0.00	30.269 
19:25	19.7	19.7	19.7	63	9.2	0	0	---	0.00	30.269 
19:30	19.7	19.7	19.7	64	9.5	0	1	248	0.00	30.269 
19:35	19.5	19.5	19.5	64	9.3	0	1	248	0.00	30.269 
19:40	19.4	19.4	19.4	64	9.2	0	0	---	0.00	30.271 
19:45	19.1	19.1	19.1	64	9.0	0	0	---	0.00	30.271 
19:50	18.8	18.8	18.8	65	9.0	0	1	248	0.00	30.270 
19:55	18.4	18.4	18.4	66	9.0	0	1	248	0.00	30.271 
20:00	18.3	18.3	18.3	66	8.9	0	1	248	0.00	30.270 
20:05	18.1	18.1	18.1	67	9.0	0	0	---	0.00	30.264 
20:10	18.1	18.1	18.1	67	9.0	0	0	---	0.00	30.261 
20:15	18.1	18.1	18.1	67	9.0	0	0	---	0.00	30.258 
20:20	18.1	18.1	18.1	68	9.3	0	0	---	0.00	30.255 
20:25	18.0	18.0	18.0	68	9.2	0	0	---	0.00	30.255 
20:30	18.0	18.0	18.0	68	9.2	0	0	---	0.00	30.252 
20:35	18.0	18.0	18.0	68	9.2	0	0	---	0.00	30.251 
20:40	17.8	17.8	17.8	68	9.1	0	0	---	0.00	30.254 
20:45	18.0	18.0	18.0	68	9.2	0	1	248	0.00	30.253 
20:50	18.0	18.0	18.0	67	8.9	0	1	248	0.00	30.253 
20:55	18.1	18.1	18.1	67	9.0	0	1	248	0.00	30.252 
21:00	18.1	18.1	18.1	67	9.0	0	1	248	0.00	30.253 
21:05	18.1	18.1	18.1	67	9.0	0	1	248	0.00	30.248 
21:10	18.0	18.0	18.0	67	8.9	0	1	248	0.00	30.249 
21:15	18.0	18.0	18.0	67	8.9	0	1	248	0.00	30.249 
21:20	18.0	18.0	18.0	67	8.9	0	1	248	0.00	30.248 
21:25	18.0	18.0	18.0	67	8.9	0	1	248	0.00	30.248 
21:30	17.8	17.8	17.8	67	8.7	0	0	---	0.00	30.248 
21:35	17.8	17.8	17.8	68	9.1	0	0	---	0.00	30.249 
21:40	17.8	17.8	17.8	68	9.1	0	0	---	0.00	30.247 
21:45	17.8	17.8	17.8	68	9.1	0	1	248	0.00	30.247 
21:50	17.8	17.8	17.8	68	9.1	0	1	248	0.00	30.246 
21:55	17.8	17.8	17.8	68	9.1	0	1	248	0.00	30.247 
22:00	17.8	17.8	17.8	68	9.1	0	1	248	0.00	30.247 
22:05	17.8	17.8	17.8	68	9.1	0	2	248	0.00	30.242 
22:10	17.8	17.8	17.8	68	9.1	0	2	180	0.00	30.241 
22:15	17.8	17.8	17.8	68	9.1	0	1	180	0.00	30.240 
22:20	18.0	18.0	18.0	68	9.2	1	2	180	0.00	30.237 
22:25	18.0	18.0	18.0	68	9.2	1	3	180	0.00	30.233 
22:30	18.0	18.0	18.0	68	9.2	1	3	135	0.00	30.234 
22:35	18.0	18.0	18.0	68	9.2	0	2	135	0.00	30.233 
22:40	18.0	18.0	18.0	68	9.2	1	3	135	0.00	30.232 
22:45	18.0	18.0	18.0	68	9.2	1	2	135	0.00	30.230 
22:50	18.0	18.0	18.0	68	9.2	1	3	135	0.00	30.228 
22:55	18.0	18.0	18.0	69	9.6	1	3	135	0.00	30.227 
23:00	18.0	18.0	18.0	69	9.6	1	3	112	0.00	30.227 
23:05	18.0	18.0	18.0	69	9.6	1	2	112	0.00	30.224 
23:10	18.0	18.0	18.0	69	9.6	1	2	112	0.00	30.223 
23:15	18.1	18.1	18.1	69	9.7	1	3	112	0.00	30.224 
23:20	18.1	18.1	18.1	69	9.7	0	3	112	0.00	30.222 
23:25	18.1	18.1	18.1	69	9.7	1	3	112	0.00	30.219 
23:30	18.1	18.1	18.1	69	9.7	0	2	112	0.00	30.222 
23:35	18.3	18.3	18.3	69	9.9	0	2	112	0.00	30.223 
23:40	18.3	18.3	18.3	70	10.2	0	2	112	0.00	30.222 
23:45	18.3	18.3	18.3	70	10.2	0	2	112	0.00	30.221 
23:50	18.4	18.4	18.4	70	10.3	1	4	112	0.00	30.220 
23:55	18.6	18.6	18.6	69	10.2	1	3	112	0.00	30.217 

CoCoRaHS
IN-AL-39
A2 Web Hosting
Creative Commons License
GoDaddy
Look for:

loaded 2017-10-20 19:55:00 • last modified 2010-11-18 10:43:29
Privacy PolicyDisclaimer
• wx.awcolley.com is powered by PmWiki v.2002016 •
• all content (unless otherwise noted) © 2017 A W Colley